Time;durP1;ratioP1;P1;durP2;ratioP2;P2;SDS_P1;SDS_P2;PMS_P1;PMS_P2;Temp;Humidity;BMP_temperature;BMP_pressure;BME280_temperature;BME280_humidity;BME280_pressure;Samples;Min_cycle;Max_cycle;Signal;HPM_P1;HPM_P2
2024/01/24 00:01:54;;;;;;;7.80;7.60;;;20.10;46.40;;;;;;5039244;28;20504;-67
2024/01/24 00:04:22;;;;;;;7.30;7.20;;;20.10;46.50;;;;;;5043689;28;20472;-67
2024/01/24 00:06:50;;;;;;;8.20;8.00;;;20.10;46.40;;;;;;5042017;28;20858;-67
2024/01/24 00:09:17;;;;;;;8.40;8.13;;;20.10;46.50;;;;;;5037390;28;20445;-67
2024/01/24 00:11:44;;;;;;;8.00;7.80;;;20.10;46.50;;;;;;5043870;28;20472;-67
2024/01/24 00:14:11;;;;;;;7.70;7.60;;;20.10;46.60;;;;;;5045097;28;20502;-67
2024/01/24 00:16:38;;;;;;;7.67;7.47;;;20.10;46.60;;;;;;5033617;28;20442;-67
2024/01/24 00:19:05;;;;;;;7.53;7.43;;;20.10;46.70;;;;;;5037587;28;20458;-67
2024/01/24 00:21:31;;;;;;;7.90;7.80;;;20.10;46.70;;;;;;5043278;28;20555;-67
2024/01/24 00:24:00;;;;;;;8.27;7.97;;;20.10;46.60;;;;;;5044933;28;20496;-67
2024/01/24 00:26:26;;;;;;;8.23;8.03;;;20.00;46.60;;;;;;5042910;28;20967;-67
2024/01/24 00:28:53;;;;;;;7.83;7.73;;;20.00;46.60;;;;;;5039080;28;20963;-67
2024/01/24 00:31:20;;;;;;;8.07;7.77;;;20.00;46.60;;;;;;5039659;28;20861;-68
2024/01/24 00:33:47;;;;;;;7.87;7.67;;;20.00;46.60;;;;;;5044645;28;20498;-67
2024/01/24 00:36:14;;;;;;;7.80;7.60;;;20.00;46.60;;;;;;5044330;28;20456;-67
2024/01/24 00:38:41;;;;;;;7.70;7.50;;;20.00;46.60;;;;;;5040809;28;20473;-67
2024/01/24 00:41:09;;;;;;;8.13;7.87;;;20.00;46.60;;;;;;5036808;28;20481;-67
2024/01/24 00:43:36;;;;;;;7.70;7.50;;;20.00;46.60;;;;;;5044181;28;20918;-67
2024/01/24 00:46:03;;;;;;;7.47;7.30;;;20.00;46.60;;;;;;5044635;28;20479;-67
2024/01/24 00:48:29;;;;;;;7.73;7.63;;;20.00;46.60;;;;;;5041939;28;20536;-67
2024/01/24 00:50:56;;;;;;;7.40;7.30;;;20.00;46.60;;;;;;5036463;28;20473;-67
2024/01/24 00:53:25;;;;;;;7.83;7.63;;;20.00;46.60;;;;;;5042069;28;20516;-67
2024/01/24 00:55:51;;;;;;;7.00;6.80;;;20.00;46.60;;;;;;5044335;28;20444;-67
2024/01/24 00:58:20;;;;;;;7.07;6.97;;;20.00;46.60;;;;;;5041917;28;20480;-67
2024/01/24 01:00:47;;;;;;;7.60;7.40;;;20.00;46.60;;;;;;5040738;28;20441;-67
2024/01/24 01:03:14;;;;;;;7.40;7.30;;;20.00;46.60;;;;;;5040715;28;20499;-67
2024/01/24 01:05:40;;;;;;;7.60;7.50;;;20.00;46.60;;;;;;5032753;28;20473;-67
2024/01/24 01:08:07;;;;;;;7.50;7.30;;;20.00;46.60;;;;;;5045113;28;20476;-67
2024/01/24 01:10:34;;;;;;;7.50;7.40;;;20.00;46.60;;;;;;5041091;28;20469;-67
2024/01/24 01:13:02;;;;;;;8.00;7.90;;;20.00;46.60;;;;;;5040349;28;20465;-67
2024/01/24 01:15:31;;;;;;;8.63;8.37;;;20.00;46.70;;;;;;5042398;28;20449;-67
2024/01/24 01:17:58;;;;;;;10.60;10.20;;;20.00;46.70;;;;;;5042891;28;20468;-67
2024/01/24 01:20:24;;;;;;;7.47;7.37;;;20.00;46.70;;;;;;5042499;28;20472;-67
2024/01/24 01:22:51;;;;;;;8.30;8.10;;;20.00;46.70;;;;;;5040248;28;20523;-67
2024/01/24 01:25:18;;;;;;;7.90;7.70;;;20.00;46.80;;;;;;5040667;28;20473;-67
2024/01/24 01:27:45;;;;;;;8.20;7.90;;;19.90;46.80;;;;;;5042853;28;20471;-67
2024/01/24 01:30:12;;;;;;;7.60;7.40;;;19.90;46.90;;;;;;5043824;28;20476;-67
2024/01/24 01:32:40;;;;;;;7.13;7.03;;;19.90;46.90;;;;;;5040268;28;20492;-67
2024/01/24 01:35:08;;;;;;;7.70;7.50;;;19.90;47.00;;;;;;5040112;28;20869;-67
2024/01/24 01:37:35;;;;;;;7.50;7.30;;;19.90;47.00;;;;;;5042168;28;20477;-67
2024/01/24 01:40:02;;;;;;;7.93;7.73;;;19.90;47.10;;;;;;5043515;28;20479;-67
2024/01/24 01:42:29;;;;;;;7.47;7.37;;;19.90;47.10;;;;;;5041568;28;20507;-66
2024/01/24 01:44:56;;;;;;;8.00;7.80;;;19.90;47.20;;;;;;5039950;28;20472;-67
2024/01/24 01:47:23;;;;;;;7.20;7.10;;;19.90;47.20;;;;;;5040649;28;20816;-67
2024/01/24 01:49:52;;;;;;;7.27;7.17;;;19.90;47.20;;;;;;5030868;28;20986;-66
2024/01/24 01:52:20;;;;;;;8.00;7.80;;;19.90;47.20;;;;;;5037170;28;20465;-66
2024/01/24 01:54:48;;;;;;;7.50;7.30;;;19.90;47.30;;;;;;5043391;28;20869;-67
2024/01/24 01:57:16;;;;;;;8.03;7.83;;;19.90;47.20;;;;;;5043297;28;20471;-66
2024/01/24 01:59:43;;;;;;;8.00;7.90;;;19.90;47.30;;;;;;5032256;28;20465;-67
2024/01/24 02:02:11;;;;;;;7.73;7.63;;;19.90;47.30;;;;;;5039728;28;20513;-66
2024/01/24 02:04:38;;;;;;;7.77;7.60;;;19.90;47.40;;;;;;5042538;28;20439;-66
2024/01/24 02:07:06;;;;;;;7.30;7.20;;;19.90;47.30;;;;;;5041763;28;20468;-66
2024/01/24 02:09:35;;;;;;;7.23;7.13;;;19.90;47.30;;;;;;5040847;28;20445;-66
2024/01/24 02:12:02;;;;;;;7.70;7.50;;;19.90;47.30;;;;;;5039499;28;20786;-67
2024/01/24 02:14:29;;;;;;;7.93;7.73;;;19.90;47.20;;;;;;5041223;28;20464;-67
2024/01/24 02:16:56;;;;;;;7.73;7.53;;;19.90;47.30;;;;;;5041948;28;20468;-66
2024/01/24 02:19:23;;;;;;;7.80;7.60;;;19.90;47.20;;;;;;5042329;28;20468;-66
2024/01/24 02:21:49;;;;;;;8.60;8.30;;;19.90;47.30;;;;;;5039366;28;20504;-66
2024/01/24 02:24:18;;;;;;;8.13;7.83;;;19.90;47.30;;;;;;5039561;28;20465;-66
2024/01/24 02:26:45;;;;;;;8.20;8.00;;;19.90;47.30;;;;;;5033442;28;20939;-66
2024/01/24 02:29:12;;;;;;;7.50;7.30;;;19.90;47.30;;;;;;5043185;28;20448;-66
2024/01/24 02:31:39;;;;;;;7.40;7.20;;;19.90;47.30;;;;;;5039816;28;20520;-66
2024/01/24 02:34:06;;;;;;;7.50;7.40;;;19.90;47.30;;;;;;5039431;28;20505;-66
2024/01/24 02:36:33;;;;;;;8.13;7.93;;;19.90;47.30;;;;;;5041903;28;20530;-66
2024/01/24 02:39:00;;;;;;;7.50;7.30;;;19.90;47.30;;;;;;5043476;28;20473;-66
2024/01/24 02:41:28;;;;;;;7.60;7.50;;;19.80;47.20;;;;;;5044540;28;20509;-66
2024/01/24 02:43:55;;;;;;;7.60;7.50;;;19.90;47.30;;;;;;5046656;28;20496;-66
2024/01/24 02:46:22;;;;;;;7.13;7.03;;;19.90;47.30;;;;;;5045191;28;20436;-66
2024/01/24 02:48:49;;;;;;;8.10;7.90;;;19.90;47.30;;;;;;5046717;28;20479;-66
2024/01/24 02:51:24;;;;;;;7.97;7.87;;;19.90;47.40;;;;;;5046600;28;20946;-66
2024/01/24 02:53:51;;;;;;;6.83;6.73;;;19.90;47.40;;;;;;5035918;28;20488;-66
2024/01/24 02:56:18;;;;;;;7.30;7.20;;;19.90;47.40;;;;;;5050362;28;20448;-66
2024/01/24 02:58:46;;;;;;;7.33;7.23;;;19.90;47.40;;;;;;5035097;28;20476;-66
2024/01/24 03:01:15;;;;;;;7.87;7.67;;;19.80;47.40;;;;;;5042905;28;20473;-67
2024/01/24 03:03:43;;;;;;;8.23;8.03;;;19.80;47.40;;;;;;5046047;28;20495;-67
2024/01/24 03:06:10;;;;;;;7.20;7.10;;;19.80;47.40;;;;;;5040681;28;20440;-67
2024/01/24 03:08:47;;;;;;;7.50;7.30;;;19.80;47.40;;;;;;5043830;28;20918;-66
2024/01/24 03:11:14;;;;;;;7.27;7.17;;;19.80;47.50;;;;;;5042805;28;20815;-67
2024/01/24 03:13:41;;;;;;;8.43;8.23;;;19.80;47.50;;;;;;5045583;28;20492;-66
2024/01/24 03:16:10;;;;;;;7.97;7.80;;;19.80;47.50;;;;;;5040691;28;20464;-67
2024/01/24 03:18:37;;;;;;;7.50;7.40;;;19.80;47.60;;;;;;5043911;28;20440;-66
2024/01/24 03:21:05;;;;;;;8.27;8.07;;;19.90;47.70;;;;;;5042541;28;20440;-67
2024/01/24 03:23:32;;;;;;;7.77;7.67;;;19.80;47.60;;;;;;5044054;28;20485;-67
2024/01/24 03:25:59;;;;;;;7.93;7.73;;;19.80;47.60;;;;;;5040556;28;20497;-66
2024/01/24 03:28:26;;;;;;;7.57;7.47;;;19.80;47.60;;;;;;5045056;28;20472;-66
2024/01/24 03:30:53;;;;;;;7.60;7.50;;;19.80;47.60;;;;;;5042458;28;20948;-66
2024/01/24 03:33:22;;;;;;;7.60;7.50;;;19.80;47.60;;;;;;5042354;28;20520;-67
2024/01/24 03:35:49;;;;;;;8.10;7.80;;;19.80;47.70;;;;;;5040665;28;20476;-67
2024/01/24 03:38:16;;;;;;;7.30;7.20;;;19.80;47.70;;;;;;5045697;28;20468;-66
2024/01/24 03:40:43;;;;;;;8.20;8.00;;;19.80;47.70;;;;;;5042372;28;20785;-66
2024/01/24 03:43:12;;;;;;;7.63;7.50;;;19.80;47.80;;;;;;5042127;28;21018;-66
2024/01/24 03:45:39;;;;;;;7.20;7.10;;;19.80;47.70;;;;;;5039430;28;20446;-67
2024/01/24 03:48:07;;;;;;;8.10;8.00;;;19.80;47.80;;;;;;5045566;28;20859;-67
2024/01/24 03:50:35;;;;;;;7.27;7.17;;;19.80;47.80;;;;;;5043677;28;20468;-66
2024/01/24 03:53:03;;;;;;;7.50;7.40;;;19.80;47.90;;;;;;5042126;28;20481;-67
2024/01/24 03:55:30;;;;;;;7.63;7.53;;;19.80;47.90;;;;;;5038290;28;20470;-67
2024/01/24 03:57:57;;;;;;;8.10;7.90;;;19.80;47.90;;;;;;5045470;28;20468;-67
2024/01/24 04:00:24;;;;;;;7.60;7.30;;;19.80;47.90;;;;;;5044795;28;20484;-67
2024/01/24 04:02:51;;;;;;;7.57;7.47;;;19.80;48.00;;;;;;5041695;28;21005;-67
2024/01/24 04:05:18;;;;;;;7.50;7.40;;;19.80;47.90;;;;;;5037514;28;20442;-67
2024/01/24 04:07:46;;;;;;;7.50;7.40;;;19.80;47.90;;;;;;5044780;28;20467;-67
2024/01/24 04:10:13;;;;;;;9.60;9.40;;;19.80;48.00;;;;;;5045137;28;20866;-67
2024/01/24 04:12:40;;;;;;;7.50;7.40;;;19.80;48.00;;;;;;5042355;28;20502;-66
2024/01/24 04:15:08;;;;;;;7.50;7.40;;;19.80;48.10;;;;;;5039769;28;20473;-67
2024/01/24 04:17:35;;;;;;;8.00;7.80;;;19.80;48.10;;;;;;5043230;28;20484;-66
2024/01/24 04:20:02;;;;;;;8.00;7.90;;;19.80;48.20;;;;;;5047830;28;20469;-67
2024/01/24 04:22:29;;;;;;;7.97;7.87;;;19.80;48.20;;;;;;5042146;28;21008;-66
2024/01/24 04:24:58;;;;;;;7.20;7.10;;;19.80;48.20;;;;;;5045207;28;20469;-66
2024/01/24 04:27:25;;;;;;;7.80;7.60;;;19.80;48.20;;;;;;5041591;28;20438;-66
2024/01/24 04:29:51;;;;;;;7.70;7.60;;;19.80;48.20;;;;;;5044749;28;20441;-66
2024/01/24 04:32:18;;;;;;;8.57;7.90;;;19.80;48.30;;;;;;5044727;28;20460;-66
2024/01/24 04:34:45;;;;;;;7.20;7.10;;;19.80;48.30;;;;;;5040234;28;20482;-66
2024/01/24 04:37:12;;;;;;;7.20;7.10;;;19.80;48.30;;;;;;5041330;28;20480;-66
2024/01/24 04:39:39;;;;;;;7.80;7.70;;;19.80;48.40;;;;;;5043510;28;20472;-67
2024/01/24 04:42:08;;;;;;;7.47;7.17;;;19.80;48.40;;;;;;5044173;28;20514;-67
2024/01/24 04:44:34;;;;;;;7.87;7.77;;;19.80;48.40;;;;;;5041754;28;20485;-66
2024/01/24 04:47:02;;;;;;;7.57;7.47;;;19.80;48.40;;;;;;5040990;28;20929;-67
2024/01/24 04:49:29;;;;;;;7.57;7.47;;;19.80;48.40;;;;;;5041636;28;20445;-66
2024/01/24 04:51:55;;;;;;;7.40;7.30;;;19.80;48.40;;;;;;5044295;28;20468;-67
2024/01/24 04:54:22;;;;;;;7.50;7.40;;;19.80;48.50;;;;;;5043604;28;21135;-66
2024/01/24 04:56:49;;;;;;;8.40;8.20;;;19.80;48.50;;;;;;5032666;28;20473;-66
2024/01/24 04:59:18;;;;;;;8.20;8.10;;;19.80;48.50;;;;;;5040404;28;20455;-67
2024/01/24 05:01:44;;;;;;;9.10;8.90;;;19.80;48.60;;;;;;5040539;28;20473;-66
2024/01/24 05:04:11;;;;;;;8.43;8.33;;;19.80;48.70;;;;;;5045648;28;21033;-67
2024/01/24 05:06:38;;;;;;;9.17;8.97;;;19.80;49.40;;;;;;5041977;28;20510;-67
2024/01/24 05:09:05;;;;;;;9.03;8.83;;;19.80;49.00;;;;;;5040528;28;20476;-66
2024/01/24 05:11:32;;;;;;;8.90;8.70;;;19.80;49.00;;;;;;5041720;28;20928;-67
2024/01/24 05:14:00;;;;;;;8.90;8.70;;;19.80;49.10;;;;;;5043388;28;20483;-67
2024/01/24 05:16:29;;;;;;;9.40;9.20;;;19.80;49.30;;;;;;5043299;28;20523;-66
2024/01/24 05:18:57;;;;;;;9.10;8.90;;;19.80;49.30;;;;;;5040603;28;20445;-67
2024/01/24 05:21:24;;;;;;;9.20;9.00;;;19.80;49.30;;;;;;5040551;28;20501;-66
2024/01/24 05:23:52;;;;;;;9.20;9.00;;;19.80;49.40;;;;;;5031047;28;20531;-66
2024/01/24 05:26:19;;;;;;;9.20;9.00;;;19.70;49.40;;;;;;5036253;28;20469;-66
2024/01/24 05:28:46;;;;;;;9.60;9.20;;;19.80;49.60;;;;;;5043264;28;20959;-67
2024/01/24 05:31:13;;;;;;;9.00;8.80;;;19.80;49.70;;;;;;5043733;28;20468;-67
2024/01/24 05:33:41;;;;;;;9.27;9.07;;;19.70;50.20;;;;;;5035785;28;20488;-67
2024/01/24 05:36:09;;;;;;;9.80;9.60;;;19.80;49.80;;;;;;5040100;28;20437;-67
2024/01/24 05:38:36;;;;;;;9.27;9.07;;;19.80;49.90;;;;;;5040076;28;20455;-67
2024/01/24 05:41:03;;;;;;;8.50;8.20;;;19.80;49.90;;;;;;5040095;28;20940;-67
2024/01/24 05:43:30;;;;;;;10.93;10.70;;;19.80;50.00;;;;;;5036913;28;20504;-67
2024/01/24 05:45:57;;;;;;;10.10;9.90;;;19.80;50.00;;;;;;5040064;28;20818;-67
2024/01/24 05:48:24;;;;;;;8.80;8.60;;;19.80;49.90;;;;;;5040273;28;20492;-67
2024/01/24 05:50:52;;;;;;;9.10;8.90;;;19.80;50.00;;;;;;5040178;28;20441;-67
2024/01/24 05:53:19;;;;;;;8.60;8.40;;;19.80;50.00;;;;;;5040191;28;20483;-67
2024/01/24 05:55:46;;;;;;;9.53;9.03;;;19.80;50.00;;;;;;5040424;28;20481;-67
2024/01/24 05:58:13;;;;;;;9.40;9.20;;;19.80;50.10;;;;;;5040071;28;20443;-67
2024/01/24 06:00:40;;;;;;;9.73;9.43;;;19.80;50.10;;;;;;5041677;28;20866;-66
2024/01/24 06:03:07;;;;;;;8.97;8.77;;;19.80;50.20;;;;;;5039002;28;20487;-67
2024/01/24 06:05:34;;;;;;;9.73;9.40;;;19.80;50.20;;;;;;5043390;28;20498;-67
2024/01/24 06:08:05;;;;;;;9.20;9.00;;;19.80;50.20;;;;;;5043265;28;20472;-67
2024/01/24 06:10:32;;;;;;;9.30;9.10;;;19.80;50.20;;;;;;5041353;28;20445;-67
2024/01/24 06:12:59;;;;;;;8.87;8.67;;;19.80;50.20;;;;;;5036012;28;20506;-67
2024/01/24 06:15:26;;;;;;;9.40;9.20;;;19.80;50.20;;;;;;5043139;28;20469;-67
2024/01/24 06:17:53;;;;;;;9.80;9.50;;;19.80;50.20;;;;;;5031851;28;20495;-67
2024/01/24 06:20:19;;;;;;;10.20;9.90;;;19.80;50.30;;;;;;5039486;28;20480;-67
2024/01/24 06:22:47;;;;;;;9.10;8.90;;;19.80;50.30;;;;;;5041145;28;20519;-67
2024/01/24 06:25:15;;;;;;;9.30;9.10;;;19.80;50.90;;;;;;5042968;28;20807;-67
2024/01/24 06:27:45;;;;;;;9.43;9.13;;;19.80;50.40;;;;;;5040974;28;20468;-67
2024/01/24 06:30:12;;;;;;;10.07;9.70;;;19.80;50.40;;;;;;5037643;28;20472;-67
2024/01/24 06:32:40;;;;;;;12.00;11.00;;;19.80;50.70;;;;;;5041015;28;20460;-67
2024/01/24 06:35:09;;;;;;;13.63;12.30;;;19.80;52.90;;;;;;5039346;28;20991;-67
2024/01/24 06:37:37;;;;;;;17.93;15.50;;;19.80;57.10;;;;;;5040978;28;20657;-67
2024/01/24 06:40:05;;;;;;;22.70;13.37;;;19.80;62.20;;;;;;5037503;28;20459;-67
2024/01/24 06:42:33;;;;;;;20.40;14.43;;;19.90;68.50;;;;;;5041818;28;20468;-66
2024/01/24 06:45:00;;;;;;;37.10;16.00;;;19.90;72.00;;;;;;5039437;28;20952;-67
2024/01/24 06:47:27;;;;;;;21.13;14.90;;;19.90;73.90;;;;;;5034961;28;20980;-67
2024/01/24 06:49:54;;;;;;;20.23;15.13;;;20.00;74.30;;;;;;5030377;28;20491;-68
2024/01/24 06:52:21;;;;;;;20.40;14.00;;;19.90;73.50;;;;;;5038494;28;20504;-68
2024/01/24 06:54:48;;;;;;;14.37;13.20;;;19.90;72.70;;;;;;5041775;28;20438;-68
2024/01/24 06:57:15;;;;;;;15.17;13.53;;;19.90;71.90;;;;;;5042575;28;20483;-68
2024/01/24 06:59:43;;;;;;;13.33;12.33;;;19.90;71.10;;;;;;5040672;28;20939;-68
2024/01/24 07:02:10;;;;;;;19.53;14.30;;;19.90;70.50;;;;;;5039068;28;20469;-68
2024/01/24 07:04:37;;;;;;;16.43;13.83;;;19.90;69.50;;;;;;5040018;28;20534;-68
2024/01/24 07:07:04;;;;;;;16.97;14.93;;;19.90;68.70;;;;;;5042515;28;20471;-68
2024/01/24 07:09:31;;;;;;;17.00;12.60;;;19.90;67.70;;;;;;5042188;28;20447;-68
2024/01/24 07:11:58;;;;;;;18.83;13.30;;;19.90;66.90;;;;;;5039070;28;20786;-68
2024/01/24 07:14:25;;;;;;;13.60;12.40;;;19.90;66.10;;;;;;5039032;28;20465;-68
2024/01/24 07:16:53;;;;;;;14.93;13.43;;;19.90;65.20;;;;;;5041980;28;20444;-68
2024/01/24 07:19:20;;;;;;;14.13;12.97;;;19.90;64.40;;;;;;5042674;28;20878;-68
2024/01/24 07:21:48;;;;;;;14.77;13.57;;;19.90;63.70;;;;;;5042090;28;20472;-68
2024/01/24 07:24:15;;;;;;;14.13;12.67;;;19.80;62.90;;;;;;5042402;28;20559;-68
2024/01/24 07:26:42;;;;;;;13.70;12.60;;;19.80;62.40;;;;;;5044339;28;20445;-68
2024/01/24 07:29:10;;;;;;;15.10;12.73;;;19.90;62.00;;;;;;5045955;28;20480;-68
2024/01/24 07:31:37;;;;;;;13.60;12.30;;;19.80;61.40;;;;;;5044641;28;20944;-68
2024/01/24 07:34:06;;;;;;;14.07;12.97;;;19.90;60.90;;;;;;5042203;28;21056;-68
2024/01/24 07:36:33;;;;;;;12.60;11.70;;;19.90;60.40;;;;;;5042421;28;20476;-68
2024/01/24 07:39:00;;;;;;;14.37;13.17;;;19.80;59.80;;;;;;5045781;28;20783;-68
2024/01/24 07:41:26;;;;;;;14.90;13.60;;;19.90;59.60;;;;;;5045566;28;20944;-68
2024/01/24 07:43:53;;;;;;;12.53;11.90;;;19.80;59.20;;;;;;5042147;28;20563;-68
2024/01/24 07:46:20;;;;;;;11.40;10.67;;;19.80;58.90;;;;;;5042185;28;20473;-68
2024/01/24 07:48:47;;;;;;;12.87;11.80;;;19.80;58.60;;;;;;5044240;28;20473;-68
2024/01/24 07:51:15;;;;;;;13.53;12.73;;;19.80;58.40;;;;;;5045340;28;20482;-68
2024/01/24 07:53:43;;;;;;;12.70;11.70;;;19.80;58.10;;;;;;5043583;28;20895;-68
2024/01/24 07:56:11;;;;;;;11.87;10.97;;;19.80;57.80;;;;;;5041926;28;20918;-68
2024/01/24 07:58:40;;;;;;;11.83;10.83;;;19.80;57.60;;;;;;5042955;28;20441;-68
2024/01/24 08:01:08;;;;;;;12.47;11.57;;;19.80;57.30;;;;;;5045232;28;20447;-68
2024/01/24 08:03:35;;;;;;;12.87;12.00;;;19.80;57.10;;;;;;5044170;28;20511;-68
2024/01/24 08:06:03;;;;;;;12.50;11.93;;;19.80;56.90;;;;;;5041791;28;20501;-68
2024/01/24 08:08:31;;;;;;;13.07;12.20;;;19.80;56.70;;;;;;5041772;28;20445;-68
2024/01/24 08:10:58;;;;;;;13.43;12.40;;;19.80;56.50;;;;;;5033678;28;20469;-68
2024/01/24 08:13:25;;;;;;;12.83;12.00;;;19.80;56.40;;;;;;5041496;28;20489;-68
2024/01/24 08:15:52;;;;;;;13.73;12.90;;;19.80;56.20;;;;;;5044336;28;20472;-68
2024/01/24 08:18:19;;;;;;;12.00;11.50;;;19.80;56.00;;;;;;5044902;28;20467;-68
2024/01/24 08:20:46;;;;;;;13.47;12.60;;;19.80;55.90;;;;;;5042786;28;20971;-68
2024/01/24 08:23:13;;;;;;;12.60;11.90;;;19.80;55.70;;;;;;5041296;28;20562;-68
2024/01/24 08:25:41;;;;;;;12.80;12.30;;;19.80;55.60;;;;;;5042379;28;20484;-68
2024/01/24 08:28:08;;;;;;;11.33;10.83;;;19.80;55.40;;;;;;5044795;28;20472;-68
2024/01/24 08:30:35;;;;;;;14.10;13.20;;;19.80;55.30;;;;;;5044227;28;20448;-68
2024/01/24 08:33:03;;;;;;;13.97;13.27;;;19.70;55.10;;;;;;5040231;28;20995;-68
2024/01/24 08:35:30;;;;;;;12.73;12.27;;;19.70;55.00;;;;;;5041304;28;20451;-68
2024/01/24 08:37:56;;;;;;;12.83;12.30;;;19.70;54.80;;;;;;5044431;28;20790;-68
2024/01/24 08:40:23;;;;;;;12.90;12.10;;;19.70;54.70;;;;;;5044471;28;20943;-68
2024/01/24 08:42:52;;;;;;;12.63;12.07;;;19.70;54.60;;;;;;5041862;28;20499;-68
2024/01/24 08:45:18;;;;;;;12.33;11.53;;;19.70;54.50;;;;;;5041014;28;20513;-68
2024/01/24 08:47:45;;;;;;;12.27;11.57;;;19.70;54.40;;;;;;5042547;28;20473;-68
2024/01/24 08:50:12;;;;;;;12.87;12.17;;;19.70;54.20;;;;;;5044278;28;20444;-68
2024/01/24 08:52:40;;;;;;;11.97;11.33;;;19.70;54.10;;;;;;5043120;28;20464;-68
2024/01/24 08:55:08;;;;;;;12.50;11.80;;;19.70;54.00;;;;;;5040899;28;20461;-68
2024/01/24 08:57:34;;;;;;;12.33;11.73;;;19.70;53.90;;;;;;5040939;28;20964;-68
2024/01/24 09:00:04;;;;;;;12.30;11.70;;;19.70;53.80;;;;;;5044155;28;20479;-68
2024/01/24 09:02:30;;;;;;;12.00;11.40;;;19.70;53.70;;;;;;5043969;28;20456;-68
2024/01/24 09:04:57;;;;;;;11.47;10.90;;;19.70;53.60;;;;;;5040562;28;20566;-68
2024/01/24 09:07:24;;;;;;;10.77;10.27;;;19.70;53.50;;;;;;5040490;28;20590;-68
2024/01/24 09:09:51;;;;;;;12.10;11.50;;;19.70;53.50;;;;;;5042918;28;20473;-68
2024/01/24 09:12:18;;;;;;;12.40;11.90;;;19.70;53.40;;;;;;5043729;28;20510;-68
2024/01/24 09:14:45;;;;;;;12.40;11.80;;;19.70;53.30;;;;;;5042181;28;20471;-68
2024/01/24 09:17:14;;;;;;;12.10;11.70;;;19.70;53.20;;;;;;5040572;28;20437;-68
2024/01/24 09:19:41;;;;;;;12.87;11.93;;;19.70;53.00;;;;;;5041095;28;20449;-68
2024/01/24 09:22:09;;;;;;;12.70;12.20;;;19.70;53.00;;;;;;5043576;28;20837;-68
2024/01/24 09:24:36;;;;;;;13.30;12.60;;;19.60;52.80;;;;;;5043197;28;20869;-68
2024/01/24 09:27:03;;;;;;;12.97;12.40;;;19.60;52.80;;;;;;5040154;28;20536;-68
2024/01/24 09:29:30;;;;;;;13.77;13.17;;;19.70;52.70;;;;;;5040157;28;20495;-67
2024/01/24 09:31:57;;;;;;;12.90;12.30;;;19.70;52.60;;;;;;5042876;28;20444;-68
2024/01/24 09:34:26;;;;;;;14.50;13.80;;;19.60;52.50;;;;;;5043480;28;20518;-68
2024/01/24 09:36:53;;;;;;;11.93;11.33;;;19.60;52.50;;;;;;5040758;28;20528;-68
2024/01/24 09:39:20;;;;;;;12.83;12.23;;;19.60;52.40;;;;;;5039802;28;20476;-68
2024/01/24 09:41:52;;;;;;;13.30;12.57;;;19.60;52.30;;;;;;5041229;28;20483;-68
2024/01/24 09:44:19;;;;;;;12.10;11.13;;;19.60;52.30;;;;;;5043074;28;20556;-68
2024/01/24 09:46:49;;;;;;;11.93;11.53;;;19.60;52.20;;;;;;5041522;28;20502;-68
2024/01/24 09:49:18;;;;;;;12.03;11.43;;;19.60;52.20;;;;;;5039819;28;20469;-68
2024/01/24 09:51:49;;;;;;;11.43;11.03;;;19.60;52.10;;;;;;5040901;28;20446;-68
2024/01/24 09:54:17;;;;;;;12.40;11.90;;;19.60;52.00;;;;;;5043251;28;20538;-68
2024/01/24 09:56:44;;;;;;;12.20;11.60;;;19.60;52.00;;;;;;5041951;28;20476;-68
2024/01/24 09:59:13;;;;;;;13.70;12.87;;;19.60;51.90;;;;;;5039750;28;20440;-68
2024/01/24 10:01:40;;;;;;;11.80;11.40;;;19.60;51.90;;;;;;5040012;28;20507;-68
2024/01/24 10:04:08;;;;;;;12.70;11.90;;;19.60;51.80;;;;;;5042924;28;20483;-67
2024/01/24 10:06:40;;;;;;;13.00;12.20;;;19.60;51.70;;;;;;5043002;28;20869;-67
2024/01/24 10:09:08;;;;;;;12.50;12.00;;;19.60;51.60;;;;;;5032296;28;20529;-68
2024/01/24 10:11:35;;;;;;;12.10;11.70;;;19.50;51.60;;;;;;5039564;28;20456;-68
2024/01/24 10:14:02;;;;;;;12.73;12.33;;;19.60;51.50;;;;;;5031550;28;20495;-68
2024/01/24 10:16:29;;;;;;;12.93;12.23;;;19.60;51.50;;;;;;5039450;28;20530;-68
2024/01/24 10:18:57;;;;;;;12.40;11.63;;;19.60;51.40;;;;;;5036700;28;22742;-68
2024/01/24 10:21:24;;;;;;;12.10;11.73;;;19.60;51.40;;;;;;5034261;28;20480;-68
2024/01/24 10:23:51;;;;;;;13.07;11.73;;;19.60;51.40;;;;;;5041132;28;20543;-68
2024/01/24 10:26:19;;;;;;;11.97;11.53;;;19.60;51.30;;;;;;5042957;28;20476;-68
2024/01/24 10:28:46;;;;;;;13.10;12.60;;;19.60;51.20;;;;;;5041493;28;20871;-67
2024/01/24 10:31:13;;;;;;;13.33;12.60;;;19.60;51.20;;;;;;5039518;28;20445;-68
2024/01/24 10:33:40;;;;;;;12.33;11.80;;;19.50;51.10;;;;;;5039450;28;20497;-67
2024/01/24 10:36:09;;;;;;;12.17;11.57;;;19.50;51.10;;;;;;5042802;28;20868;-68
2024/01/24 10:38:42;;;;;;;11.97;11.47;;;19.50;51.00;;;;;;5042782;28;20506;-68
2024/01/24 10:41:15;;;;;;;11.67;11.00;;;19.50;50.90;;;;;;5032087;28;20499;-68
2024/01/24 10:43:48;;;;;;;13.47;12.77;;;19.50;50.90;;;;;;5039397;28;20500;-68
2024/01/24 10:46:16;;;;;;;11.87;11.37;;;19.50;50.80;;;;;;5042700;28;20437;-68
2024/01/24 10:48:43;;;;;;;12.23;11.77;;;19.50;50.80;;;;;;5041742;28;20812;-68
2024/01/24 10:51:12;;;;;;;12.60;12.03;;;19.50;50.80;;;;;;5039194;28;20873;-67
2024/01/24 10:53:40;;;;;;;12.17;11.57;;;19.50;50.80;;;;;;5039130;28;20845;-68
2024/01/24 10:56:08;;;;;;;12.60;11.87;;;19.50;50.70;;;;;;5044015;28;20525;-67
2024/01/24 10:58:35;;;;;;;12.37;11.83;;;19.50;50.70;;;;;;5046465;28;20943;-67
2024/01/24 11:01:04;;;;;;;12.93;12.27;;;19.50;50.70;;;;;;5042853;28;20480;-67
2024/01/24 11:03:32;;;;;;;12.60;12.10;;;19.50;50.60;;;;;;5042876;28;20471;-67
2024/01/24 11:06:05;;;;;;;12.33;11.93;;;19.50;50.60;;;;;;5045531;28;20515;-67
2024/01/24 11:08:36;;;;;;;12.37;11.97;;;19.50;50.50;;;;;;5046328;28;20861;-68
2024/01/24 11:11:08;;;;;;;12.80;12.30;;;19.50;50.50;;;;;;5042613;28;20468;-67
2024/01/24 11:13:35;;;;;;;12.70;12.00;;;19.50;50.50;;;;;;5042659;28;20547;-68
2024/01/24 11:16:28;;;;;;;12.77;12.27;;;19.50;50.50;;;;;;5045749;28;20468;-68
2024/01/24 11:18:59;;;;;;;12.27;11.77;;;19.50;50.40;;;;;;5043774;28;20467;-68
2024/01/24 11:21:29;;;;;;;12.43;11.67;;;19.50;50.40;;;;;;5042481;28;20437;-68
2024/01/24 11:23:56;;;;;;;12.73;12.00;;;19.50;50.40;;;;;;5044503;28;20488;-68
2024/01/24 11:26:48;;;;;;;14.13;13.50;;;19.50;50.30;;;;;;5045906;28;20472;-68
2024/01/24 11:29:15;;;;;;;13.20;12.60;;;19.50;50.20;;;;;;5035693;28;20437;-68
2024/01/24 11:31:44;;;;;;;12.87;12.27;;;19.50;50.20;;;;;;5042558;28;20476;-68
2024/01/24 11:34:12;;;;;;;12.43;11.93;;;19.50;50.20;;;;;;5045691;28;20534;-68
2024/01/24 11:36:43;;;;;;;12.83;12.17;;;19.50;50.20;;;;;;5045467;28;20436;-68
2024/01/24 11:39:32;;;;;;;13.67;12.90;;;19.50;50.20;;;;;;5034858;28;20495;-68
2024/01/24 11:42:34;;;;;;;12.10;11.70;;;19.50;50.10;;;;;;5044501;28;20881;-68
2024/01/24 11:45:14;;;;;;;13.20;12.50;;;19.50;50.10;;;;;;5042610;28;20499;-68
2024/01/24 11:47:43;;;;;;;13.40;12.90;;;19.50;50.10;;;;;;5042387;28;20444;-68
2024/01/24 11:50:11;;;;;;;13.37;12.77;;;19.50;50.00;;;;;;5045443;28;20440;-67
2024/01/24 11:52:38;;;;;;;13.13;12.50;;;19.40;50.00;;;;;;5045349;28;20972;-68
2024/01/24 11:55:06;;;;;;;12.83;12.30;;;19.40;50.00;;;;;;5041937;28;20437;-68
2024/01/24 11:57:33;;;;;;;12.60;12.00;;;19.40;49.90;;;;;;5041887;28;20452;-68
2024/01/24 12:00:00;;;;;;;12.87;12.30;;;19.40;49.90;;;;;;5044329;28;20941;-68
2024/01/24 12:02:26;;;;;;;12.20;11.70;;;19.40;49.90;;;;;;5045149;28;20460;-68
2024/01/24 12:04:55;;;;;;;12.53;11.77;;;19.40;49.90;;;;;;5043303;28;20514;-68
2024/01/24 12:07:22;;;;;;;12.33;11.83;;;19.40;49.80;;;;;;5041662;28;20473;-68
2024/01/24 12:09:50;;;;;;;12.73;12.23;;;19.40;49.80;;;;;;5042689;28;20835;-68
2024/01/24 12:12:17;;;;;;;12.90;12.07;;;19.40;49.80;;;;;;5045030;28;20464;-68
2024/01/24 12:14:45;;;;;;;12.40;11.70;;;19.40;49.70;;;;;;5044485;28;20541;-68
2024/01/24 12:17:12;;;;;;;12.67;11.97;;;19.40;49.70;;;;;;5041553;28;20484;-68
2024/01/24 12:19:43;;;;;;;11.87;11.20;;;19.40;49.70;;;;;;5041481;28;20449;-68
2024/01/24 12:22:13;;;;;;;12.87;12.40;;;19.40;49.60;;;;;;5033653;28;20465;-68
2024/01/24 12:24:41;;;;;;;12.80;12.30;;;19.40;49.60;;;;;;5041323;28;20570;-68
2024/01/24 12:27:09;;;;;;;12.80;12.30;;;19.40;49.60;;;;;;5033415;28;20445;-68
2024/01/24 12:29:35;;;;;;;12.37;11.87;;;19.40;49.60;;;;;;5041299;28;20479;-68
2024/01/24 12:32:05;;;;;;;12.20;11.63;;;19.40;49.50;;;;;;5043933;28;20854;-68
2024/01/24 12:34:32;;;;;;;12.43;11.93;;;19.40;49.50;;;;;;5044699;28;20448;-68
2024/01/24 12:37:00;;;;;;;12.30;11.60;;;19.40;49.50;;;;;;5042124;28;20502;-68
2024/01/24 12:39:28;;;;;;;12.37;11.97;;;19.40;49.50;;;;;;5041097;28;20473;-68